Time;durP1;ratioP1;P1;durP2;ratioP2;P2;SDS_P1;SDS_P2;PMS_P1;PMS_P2;Temp;Humidity;BMP_temperature;BMP_pressure;BME280_temperature;BME280_humidity;BME280_pressure;Samples;Min_cycle;Max_cycle;Signal;HPM_P1;HPM_P2
2021/12/07 00:01:28;;;;;;;8.67;7.20;;;-0.30;99.90;;;;;;4999533;28;20174;-83
2021/12/07 00:03:54;;;;;;;9.60;7.07;;;-0.30;99.90;;;;;;4993651;28;20229;-84
2021/12/07 00:06:21;;;;;;;7.67;6.80;;;-0.50;99.90;;;;;;4993273;28;20297;-83
2021/12/07 00:08:51;;;;;;;7.63;6.93;;;-0.60;99.90;;;;;;4992486;28;20174;-84
2021/12/07 00:11:17;;;;;;;7.00;6.30;;;-0.50;99.90;;;;;;4991431;28;20519;-85
2021/12/07 00:13:43;;;;;;;7.70;6.47;;;-0.60;99.90;;;;;;4991129;28;20228;-84
2021/12/07 00:16:11;;;;;;;8.80;6.93;;;-0.80;99.90;;;;;;4991109;28;20170;-85
2021/12/07 00:18:37;;;;;;;7.67;6.60;;;-0.80;99.90;;;;;;4991214;28;20178;-84
2021/12/07 00:21:06;;;;;;;6.80;6.10;;;-0.70;99.90;;;;;;4991220;28;20169;-84
2021/12/07 00:23:32;;;;;;;9.97;7.07;;;-0.70;99.90;;;;;;4973648;28;20221;-84
2021/12/07 00:25:58;;;;;;;8.97;6.50;;;-0.80;99.90;;;;;;4992604;28;20685;-86
2021/12/07 00:28:24;;;;;;;8.80;6.13;;;-0.80;99.90;;;;;;4994480;28;20185;-85
2021/12/07 00:30:52;;;;;;;8.17;6.20;;;-0.90;99.90;;;;;;4998427;28;20178;-83
2021/12/07 00:33:35;;;;;;;8.77;6.00;;;-1.00;99.90;;;;;;4994816;28;20174;-86
2021/12/07 00:36:01;;;;;;;7.27;5.77;;;-1.00;99.90;;;;;;4994886;28;20630;-85
2021/12/07 00:38:27;;;;;;;7.60;5.70;;;-1.10;99.90;;;;;;4995083;28;20184;-85
2021/12/07 00:40:55;;;;;;;8.43;5.90;;;-0.90;99.90;;;;;;4994582;28;20189;-85
2021/12/07 00:43:20;;;;;;;8.20;5.97;;;-0.90;99.90;;;;;;4995809;28;20233;-84
2021/12/07 00:45:46;;;;;;;9.27;6.10;;;-1.00;99.90;;;;;;5010393;28;20189;-84
2021/12/07 00:48:16;;;;;;;7.63;5.33;;;-1.00;99.90;;;;;;5015718;28;20174;-85
2021/12/07 00:50:45;;;;;;;8.57;5.37;;;-1.00;99.90;;;;;;5008306;28;20166;-85
2021/12/07 00:53:12;;;;;;;5.70;5.20;;;-0.90;99.90;;;;;;5007669;28;20315;-85
2021/12/07 00:55:41;;;;;;;7.80;6.30;;;-0.80;99.90;;;;;;4998304;28;20167;-85
2021/12/07 00:58:17;;;;;;;6.60;5.20;;;-0.80;99.90;;;;;;4995053;28;20186;-83
2021/12/07 01:00:45;;;;;;;6.67;5.50;;;-0.90;99.90;;;;;;4994089;28;20188;-84
2021/12/07 01:03:11;;;;;;;6.23;5.03;;;-1.00;99.90;;;;;;4976429;28;20190;-84
2021/12/07 01:05:39;;;;;;;7.87;5.50;;;-1.10;99.90;;;;;;4994000;28;20185;-84
2021/12/07 01:27:02;;;;;;;5.50;4.50;;;-1.00;99.90;;;;;;5013060;28;20255;-83
2021/12/07 01:29:28;;;;;;;6.27;4.17;;;-0.90;99.90;;;;;;5013147;28;20682;-84
2021/12/07 01:32:07;;;;;;;5.77;4.60;;;-0.90;99.90;;;;;;5012982;28;20177;-85
2021/12/07 01:37:51;;;;;;;4.60;4.20;;;-0.90;99.90;;;;;;5012598;28;20264;-85
2021/12/07 01:53:02;;;;;;;4.90;4.40;;;-1.00;99.90;;;;;;5013163;28;20543;-84
2021/12/07 02:00:52;;;;;;;5.00;4.50;;;-1.20;99.90;;;;;;5014033;28;20176;-83
2021/12/07 02:03:19;;;;;;;6.03;4.30;;;-0.90;99.90;;;;;;4995334;28;20181;-84
2021/12/07 02:05:45;;;;;;;4.77;4.27;;;-0.70;99.90;;;;;;5012570;28;20578;-84
2021/12/07 02:08:11;;;;;;;5.77;4.40;;;-0.70;99.90;;;;;;5012446;28;20629;-83
2021/12/07 02:10:37;;;;;;;5.10;4.30;;;-0.70;99.90;;;;;;5012223;28;20180;-84
2021/12/07 02:13:17;;;;;;;5.40;4.67;;;-0.80;99.90;;;;;;4994340;28;20867;-84
2021/12/07 02:15:43;;;;;;;4.60;4.20;;;-1.00;99.90;;;;;;5012251;28;20191;-84
2021/12/07 02:18:09;;;;;;;4.63;4.23;;;-0.90;99.90;;;;;;5012389;28;20196;-84
2021/12/07 02:20:34;;;;;;;6.47;4.27;;;-0.90;99.90;;;;;;4994622;28;20177;-83
2021/12/07 02:23:00;;;;;;;5.90;4.47;;;-0.90;99.90;;;;;;5012208;28;20177;-84
2021/12/07 02:25:28;;;;;;;4.60;4.20;;;-0.80;99.90;;;;;;4994439;28;20231;-83
2021/12/07 02:27:54;;;;;;;6.63;4.53;;;-1.00;99.90;;;;;;4993889;28;20212;-87
2021/12/07 02:30:23;;;;;;;5.37;4.50;;;-0.90;99.90;;;;;;4994938;28;20568;-83
2021/12/07 02:32:52;;;;;;;5.30;4.30;;;-0.90;99.90;;;;;;5015178;28;20180;-87
2021/12/07 02:35:24;;;;;;;5.97;4.17;;;-0.80;99.90;;;;;;5034718;28;20173;-87
2021/12/07 02:37:51;;;;;;;5.20;4.27;;;-0.70;99.90;;;;;;5030874;28;20161;-85
2021/12/07 02:40:16;;;;;;;5.60;4.23;;;-0.70;99.90;;;;;;5025654;28;20177;-85
2021/12/07 02:42:44;;;;;;;5.07;4.03;;;-0.90;99.90;;;;;;5017539;28;20237;-84
2021/12/07 02:45:11;;;;;;;4.90;4.40;;;-0.90;99.90;;;;;;5011872;28;20177;-84
2021/12/07 02:47:37;;;;;;;5.53;4.53;;;-0.90;99.90;;;;;;5011742;28;20209;-84
2021/12/07 02:50:06;;;;;;;4.93;4.43;;;-0.70;99.90;;;;;;5010665;28;20177;-83
2021/12/07 02:52:32;;;;;;;5.07;4.50;;;-0.70;99.90;;;;;;5014049;28;20231;-82
2021/12/07 02:54:57;;;;;;;4.63;4.23;;;-0.70;99.90;;;;;;5014056;28;20181;-83
2021/12/07 02:57:23;;;;;;;4.87;4.20;;;-0.70;99.90;;;;;;5005263;28;20183;-84
2021/12/07 02:59:59;;;;;;;5.37;4.87;;;-0.70;99.90;;;;;;4992186;28;20177;-84
2021/12/07 03:02:25;;;;;;;4.90;4.50;;;-0.70;99.90;;;;;;4991957;28;20177;-83
2021/12/07 03:05:03;;;;;;;4.53;4.13;;;-0.70;99.90;;;;;;4991833;28;20240;-86
2021/12/07 03:26:25;;;;;;;5.53;4.37;;;-0.80;99.90;;;;;;4992420;28;20225;-86
2021/12/07 03:28:54;;;;;;;5.47;4.00;;;-1.00;99.90;;;;;;4991985;28;20185;-85
2021/12/07 03:31:22;;;;;;;5.00;4.50;;;-0.90;99.90;;;;;;4991696;28;20704;-85
2021/12/07 03:33:48;;;;;;;4.93;4.33;;;-0.70;99.90;;;;;;4991594;28;20661;-85
2021/12/07 03:36:14;;;;;;;4.67;4.27;;;-0.80;99.90;;;;;;4991551;28;20265;-84
2021/12/07 03:38:41;;;;;;;5.57;4.50;;;-0.90;99.90;;;;;;4991805;28;20201;-85
2021/12/07 03:41:08;;;;;;;5.80;4.57;;;-1.00;99.90;;;;;;4991295;28;20656;-84
2021/12/07 03:43:34;;;;;;;8.80;4.80;;;-0.90;99.90;;;;;;5004345;28;20280;-84
2021/12/07 03:46:00;;;;;;;5.80;4.77;;;-0.90;99.90;;;;;;5011480;28;20176;-85
2021/12/07 03:48:27;;;;;;;5.93;4.63;;;-1.00;99.90;;;;;;5014207;28;20192;-83
2021/12/07 03:50:53;;;;;;;8.13;4.80;;;-0.90;99.90;;;;;;5016047;28;20185;-87
2021/12/07 03:53:19;;;;;;;8.73;6.10;;;-0.90;99.90;;;;;;5028854;28;20192;-86
2021/12/07 03:55:45;;;;;;;7.73;6.20;;;-0.80;99.90;;;;;;5006031;28;20619;-87
2021/12/07 03:58:11;;;;;;;8.27;6.30;;;-0.90;99.90;;;;;;5011863;28;20277;-87
2021/12/07 04:00:41;;;;;;;8.70;7.27;;;-0.80;99.90;;;;;;4978204;28;20210;-88
2021/12/07 04:03:10;;;;;;;12.07;7.67;;;-0.90;99.90;;;;;;4995432;28;20181;-87
2021/12/07 04:05:45;;;;;;;11.83;8.63;;;-0.90;99.90;;;;;;5001231;28;20173;-88
2021/12/07 04:08:21;;;;;;;10.30;7.60;;;-1.00;99.90;;;;;;4996008;28;20220;-88
2021/12/07 04:10:48;;;;;;;12.60;8.80;;;-1.00;99.90;;;;;;4995549;28;20165;-86
2021/12/07 04:13:14;;;;;;;12.00;8.97;;;-1.00;99.90;;;;;;4993589;28;20193;-88
2021/12/07 04:15:40;;;;;;;15.30;8.93;;;-1.10;99.90;;;;;;5018471;28;20177;-86
2021/12/07 04:18:07;;;;;;;13.73;9.20;;;-1.10;99.90;;;;;;5007963;28;20184;-84
2021/12/07 04:20:33;;;;;;;11.87;8.83;;;-1.20;99.90;;;;;;5024612;28;20279;-84
2021/12/07 04:22:59;;;;;;;13.10;8.63;;;-1.30;99.90;;;;;;5033448;28;20165;-83
2021/12/07 04:25:25;;;;;;;14.57;8.77;;;-1.30;99.90;;;;;;5038344;28;20188;-84
2021/12/07 04:27:52;;;;;;;13.27;8.90;;;-1.20;99.90;;;;;;5004089;28;20227;-86
2021/12/07 04:30:22;;;;;;;10.53;8.77;;;-1.30;99.90;;;;;;5015603;28;20184;-87
2021/12/07 04:32:49;;;;;;;13.93;8.73;;;-1.30;99.90;;;;;;5015169;28;20180;-86
2021/12/07 04:35:15;;;;;;;12.97;8.53;;;-1.30;99.90;;;;;;5014312;28;20180;-86
2021/12/07 04:37:42;;;;;;;12.13;8.30;;;-1.40;99.90;;;;;;5014342;28;20280;-85
2021/12/07 04:40:10;;;;;;;12.57;8.53;;;-1.30;99.90;;;;;;5014096;28;20173;-85
2021/12/07 04:42:36;;;;;;;12.80;8.03;;;-1.40;99.90;;;;;;5013636;28;20271;-87
2021/12/07 04:45:07;;;;;;;9.90;7.77;;;-1.40;99.90;;;;;;4996526;28;20262;-88
2021/12/07 04:48:33;;;;;;;12.60;8.67;;;-1.40;99.90;;;;;;5014957;28;20200;-86
2021/12/07 04:58:21;;;;;;;13.47;8.73;;;-1.60;99.90;;;;;;5013907;28;20227;-86
2021/12/07 05:00:48;;;;;;;13.77;9.33;;;-1.70;99.90;;;;;;5013825;28;20204;-83
2021/12/07 05:03:15;;;;;;;12.37;8.50;;;-1.60;99.90;;;;;;5013727;28;20258;-83
2021/12/07 05:05:48;;;;;;;14.10;8.80;;;-1.70;99.90;;;;;;5014621;28;20701;-85
2021/12/07 05:08:18;;;;;;;13.80;9.20;;;-1.70;99.90;;;;;;5016199;28;20224;-86
2021/12/07 05:11:22;;;;;;;17.50;10.03;;;-1.70;99.90;;;;;;5013605;28;20177;-84
2021/12/07 05:13:49;;;;;;;16.10;9.87;;;-1.70;99.90;;;;;;5012258;28;20220;-85
2021/12/07 05:24:20;;;;;;;25.37;12.23;;;-1.70;99.90;;;;;;5013559;28;20239;-83
2021/12/07 05:40:16;;;;;;;12.07;8.50;;;-1.80;99.90;;;;;;5027953;28;20195;-85
2021/12/07 05:42:42;;;;;;;9.97;7.87;;;-1.80;99.90;;;;;;5030161;28;20240;-84
2021/12/07 05:45:12;;;;;;;12.27;8.23;;;-1.90;99.90;;;;;;5004781;28;20236;-83
2021/12/07 05:47:38;;;;;;;10.93;7.87;;;-1.90;99.90;;;;;;5029971;28;20197;-84
2021/12/07 05:50:06;;;;;;;12.13;7.97;;;-1.90;99.90;;;;;;5014521;28;20833;-85
2021/12/07 05:52:32;;;;;;;11.07;7.43;;;-1.90;99.90;;;;;;5013934;28;20251;-84
2021/12/07 05:54:58;;;;;;;14.30;9.77;;;-1.80;99.90;;;;;;5013108;28;20262;-86
2021/12/07 05:57:23;;;;;;;13.33;8.40;;;-1.90;99.90;;;;;;5012545;28;20184;-87
2021/12/07 05:59:49;;;;;;;10.73;8.00;;;-1.90;99.90;;;;;;4995255;28;20238;-84
2021/12/07 06:02:15;;;;;;;12.67;8.27;;;-1.80;99.90;;;;;;5012586;28;20247;-83
2021/12/07 06:04:41;;;;;;;10.87;7.40;;;-1.80;99.90;;;;;;5013130;28;20176;-84
2021/12/07 06:07:10;;;;;;;10.00;7.43;;;-1.80;99.90;;;;;;5015442;28;20204;-83
2021/12/07 06:09:36;;;;;;;9.80;7.30;;;-1.70;99.90;;;;;;5015621;28;20166;-82
2021/12/07 06:12:03;;;;;;;11.03;7.80;;;-1.70;99.90;;;;;;5001633;28;20186;-83
2021/12/07 06:14:35;;;;;;;9.23;7.30;;;-1.60;99.90;;;;;;5007339;28;20154;-83
2021/12/07 06:17:01;;;;;;;9.50;7.10;;;-1.70;99.90;;;;;;4999263;28;20365;-84
2021/12/07 06:19:28;;;;;;;10.70;7.60;;;-1.70;99.90;;;;;;4995662;28;20202;-83
2021/12/07 06:21:54;;;;;;;11.83;7.23;;;-1.70;99.90;;;;;;4993648;28;20185;-86
2021/12/07 06:24:20;;;;;;;8.67;6.40;;;-1.60;99.90;;;;;;4992752;28;20544;-84
2021/12/07 06:26:46;;;;;;;8.70;6.70;;;-1.80;99.90;;;;;;4992585;28;20206;-84
2021/12/07 06:29:12;;;;;;;8.57;6.07;;;-2.00;99.90;;;;;;4992605;28;20177;-84
2021/12/07 06:31:38;;;;;;;6.73;5.73;;;-2.00;99.90;;;;;;4992434;28;20181;-84
2021/12/07 06:34:03;;;;;;;7.73;6.20;;;-1.90;99.90;;;;;;4992567;28;20172;-84
2021/12/07 06:36:29;;;;;;;6.20;5.33;;;-1.90;99.90;;;;;;4992715;28;20534;-83
2021/12/07 06:38:55;;;;;;;6.80;5.27;;;-1.90;99.90;;;;;;4992280;28;20184;-84
2021/12/07 06:41:21;;;;;;;6.53;5.30;;;-2.00;99.90;;;;;;4992888;28;20170;-84
2021/12/07 06:43:47;;;;;;;7.60;5.53;;;-1.90;99.90;;;;;;5011925;28;20179;-84
2021/12/07 06:46:13;;;;;;;7.57;4.93;;;-1.90;99.90;;;;;;5011940;28;20621;-85
2021/12/07 06:48:39;;;;;;;7.23;6.00;;;-1.90;99.90;;;;;;5012360;28;20239;-84
2021/12/07 06:51:05;;;;;;;7.50;5.53;;;-1.70;99.90;;;;;;4994507;28;20195;-83
2021/12/07 06:53:35;;;;;;;6.40;5.57;;;-1.80;99.90;;;;;;5013554;28;20226;-83
2021/12/07 06:56:06;;;;;;;6.00;5.43;;;-1.70;99.90;;;;;;5012204;28;20300;-84
2021/12/07 06:58:33;;;;;;;8.97;5.53;;;-1.70;99.90;;;;;;4975782;28;20222;-84
2021/12/07 07:00:59;;;;;;;8.03;5.57;;;-1.70;99.90;;;;;;4993559;28;20232;-83
2021/12/07 07:03:25;;;;;;;8.17;5.67;;;-1.80;99.90;;;;;;4995119;28;20274;-84
2021/12/07 07:05:52;;;;;;;5.83;5.23;;;-1.70;99.90;;;;;;5000248;28;20197;-84
2021/12/07 07:08:18;;;;;;;5.90;5.30;;;-1.60;99.90;;;;;;4982789;28;20279;-84
2021/12/07 07:10:45;;;;;;;9.57;6.47;;;-1.70;99.90;;;;;;4996077;28;20181;-84
2021/12/07 07:13:12;;;;;;;8.50;6.50;;;-1.90;99.90;;;;;;5003082;28;20178;-84
2021/12/07 07:15:38;;;;;;;9.90;6.23;;;-2.00;99.90;;;;;;4980928;28;20231;-84
2021/12/07 07:18:04;;;;;;;9.20;6.20;;;-2.20;99.90;;;;;;4992708;28;20184;-84
2021/12/07 07:20:31;;;;;;;8.57;6.10;;;-2.20;99.90;;;;;;4992809;28;20181;-87
2021/12/07 07:22:57;;;;;;;8.63;5.37;;;-2.20;99.90;;;;;;4993716;28;20184;-84
2021/12/07 07:25:23;;;;;;;8.47;5.90;;;-2.00;99.90;;;;;;4992416;28;20519;-87
2021/12/07 07:27:49;;;;;;;6.93;5.30;;;-2.00;99.90;;;;;;5004730;28;20300;-87
2021/12/07 07:30:17;;;;;;;8.03;5.23;;;-1.80;99.90;;;;;;5012134;28;20179;-88
2021/12/07 07:32:43;;;;;;;10.70;5.93;;;-1.80;99.90;;;;;;5012142;28;20187;-88
2021/12/07 07:35:12;;;;;;;10.37;5.60;;;-1.80;99.90;;;;;;5021943;28;20166;-89
2021/12/07 07:37:38;;;;;;;12.23;6.83;;;-1.70;99.90;;;;;;5022579;28;20715;-88
2021/12/07 07:40:06;;;;;;;11.63;5.83;;;-1.60;99.90;;;;;;5019780;28;20263;-87
2021/12/07 07:42:34;;;;;;;7.80;6.83;;;-1.40;99.90;;;;;;5022405;28;20230;-86
2021/12/07 07:45:00;;;;;;;11.40;6.50;;;-1.20;99.90;;;;;;5018191;28;20195;-84
2021/12/07 07:47:26;;;;;;;8.97;6.00;;;-1.20;99.90;;;;;;5008486;28;20223;-85
2021/12/07 07:49:52;;;;;;;9.10;6.20;;;-1.30;99.90;;;;;;5009131;28;20176;-85
2021/12/07 07:52:17;;;;;;;9.53;5.80;;;-1.30;99.90;;;;;;5008647;28;20248;-86
2021/12/07 07:54:43;;;;;;;8.93;6.30;;;-1.10;99.90;;;;;;5009465;28;20177;-87
2021/12/07 07:57:09;;;;;;;8.37;6.37;;;-1.10;99.90;;;;;;5002189;28;20215;-86
2021/12/07 07:59:36;;;;;;;7.90;6.33;;;-1.10;99.90;;;;;;5011097;28;20189;-85
2021/12/07 08:02:03;;;;;;;6.03;5.43;;;-1.10;99.90;;;;;;5019055;28;20185;-87
2021/12/07 08:04:28;;;;;;;8.77;6.20;;;-1.00;99.90;;;;;;5003979;28;20272;-88
2021/12/07 08:06:54;;;;;;;7.17;5.43;;;-0.90;99.90;;;;;;5003810;28;20241;-88
2021/12/07 08:09:20;;;;;;;11.87;5.40;;;-0.80;99.90;;;;;;4999349;28;20180;-88
2021/12/07 08:11:46;;;;;;;9.40;5.80;;;-0.80;99.90;;;;;;4999105;28;20185;-88
2021/12/07 08:14:12;;;;;;;7.47;6.10;;;-0.80;99.90;;;;;;4982497;28;20177;-90
2021/12/07 08:16:38;;;;;;;7.77;6.53;;;-0.80;99.90;;;;;;4981629;28;20174;-87
2021/12/07 08:19:04;;;;;;;6.53;5.83;;;-0.80;99.90;;;;;;4982064;28;20177;-88
2021/12/07 08:21:30;;;;;;;7.20;6.23;;;-0.70;99.90;;;;;;5000603;28;20171;-88
2021/12/07 08:23:55;;;;;;;8.77;6.23;;;-0.40;99.90;;;;;;4990951;28;20193;-87
2021/12/07 08:26:23;;;;;;;8.10;6.17;;;-0.20;99.90;;;;;;4995976;28;20206;-85
2021/12/07 08:28:51;;;;;;;9.57;6.63;;;-0.10;99.90;;;;;;5009112;28;20180;-86
2021/12/07 08:31:18;;;;;;;8.80;5.80;;;-0.20;99.90;;;;;;5014428;28;20169;-86
2021/12/07 08:33:43;;;;;;;9.50;5.80;;;-0.20;99.90;;;;;;5006906;28;20181;-86
2021/12/07 08:36:09;;;;;;;6.47;5.60;;;-0.30;99.90;;;;;;4982887;28;20174;-89
2021/12/07 08:38:36;;;;;;;9.87;6.57;;;-0.30;99.90;;;;;;4998561;28;20178;-89
2021/12/07 08:41:02;;;;;;;9.53;6.00;;;-0.30;99.90;;;;;;4998954;28;20166;-87
2021/12/07 08:43:31;;;;;;;9.13;6.67;;;-0.40;99.90;;;;;;4997655;28;20237;-87
2021/12/07 08:45:59;;;;;;;10.27;5.70;;;-0.40;99.90;;;;;;5000896;28;20177;-89
2021/12/07 08:48:26;;;;;;;11.53;6.03;;;-0.20;99.90;;;;;;5007390;28;20241;-87
2021/12/07 08:50:52;;;;;;;10.73;6.00;;;-0.40;99.90;;;;;;5001073;28;20181;-88
2021/12/07 08:53:21;;;;;;;9.83;6.17;;;-0.30;99.90;;;;;;4996364;28;20175;-87
2021/12/07 09:01:19;;;;;;;9.60;5.93;;;-0.20;99.90;;;;;;5003739;28;20197;-90
2021/12/07 09:03:47;;;;;;;11.83;6.30;;;-0.10;99.90;;;;;;5004601;28;20182;-86
2021/12/07 09:06:13;;;;;;;9.23;6.17;;;0.00;99.90;;;;;;4985479;28;20205;-88
2021/12/07 09:08:42;;;;;;;11.97;6.70;;;-0.20;99.90;;;;;;5002649;28;20166;-89
2021/12/07 09:11:11;;;;;;;11.60;6.67;;;-0.20;99.90;;;;;;4985350;28;20173;-90
2021/12/07 09:13:38;;;;;;;9.03;6.47;;;-0.10;99.90;;;;;;5024531;28;20170;-89
2021/12/07 09:16:04;;;;;;;10.00;5.97;;;0.00;99.90;;;;;;5017835;28;20166;-86
2021/12/07 09:18:31;;;;;;;10.30;6.07;;;0.10;99.90;;;;;;5013005;28;20184;-88
2021/12/07 09:20:58;;;;;;;13.20;5.87;;;0.20;99.90;;;;;;5007736;28;20185;-87
2021/12/07 09:23:24;;;;;;;10.70;6.27;;;0.30;99.90;;;;;;5022897;28;20169;-85
2021/12/07 09:25:50;;;;;;;10.13;6.03;;;0.30;99.90;;;;;;5022403;28;20365;-85
2021/12/07 09:28:16;;;;;;;10.17;5.70;;;0.30;99.90;;;;;;4992024;28;20209;-85
2021/12/07 09:30:43;;;;;;;15.03;6.57;;;0.40;99.90;;;;;;5009235;28;20173;-84
2021/12/07 09:33:09;;;;;;;9.23;6.60;;;0.40;99.90;;;;;;5011039;28;20169;-86
2021/12/07 09:35:35;;;;;;;9.37;6.50;;;0.40;99.90;;;;;;5006649;28;20187;-86
2021/12/07 09:38:02;;;;;;;10.57;6.50;;;0.40;99.90;;;;;;4986330;28;20181;-86
2021/12/07 09:40:29;;;;;;;10.50;5.97;;;0.40;99.90;;;;;;5004225;28;20261;-85
2021/12/07 09:42:57;;;;;;;12.27;6.67;;;0.50;99.90;;;;;;5003230;28;20237;-86
2021/12/07 09:45:25;;;;;;;16.10;7.03;;;0.60;99.90;;;;;;5003142;28;20178;-86
2021/12/07 09:47:53;;;;;;;13.93;6.80;;;0.70;99.90;;;;;;5008970;28;20214;-84
2021/12/07 09:50:22;;;;;;;14.50;7.87;;;0.70;99.90;;;;;;4999401;28;20191;-85
2021/12/07 09:52:48;;;;;;;9.13;6.23;;;0.80;99.90;;;;;;5000684;28;20176;-85
2021/12/07 09:55:15;;;;;;;12.80;6.13;;;0.90;99.90;;;;;;5002010;28;20379;-84
2021/12/07 09:57:42;;;;;;;13.97;6.73;;;1.00;99.90;;;;;;5002042;28;20188;-87
2021/12/07 10:00:10;;;;;;;10.97;6.73;;;1.00;99.90;;;;;;4994827;28;20202;-85
2021/12/07 10:02:36;;;;;;;10.80;6.60;;;1.30;99.90;;;;;;4994048;28;20195;-86
2021/12/07 10:05:03;;;;;;;9.33;6.13;;;1.30;99.90;;;;;;4994006;28;20203;-86
2021/12/07 10:07:29;;;;;;;14.47;7.73;;;1.30;99.90;;;;;;4994023;28;20619;-85
2021/12/07 10:09:55;;;;;;;11.83;7.00;;;1.40;99.90;;;;;;4994809;28;20547;-84
2021/12/07 10:12:23;;;;;;;7.77;6.17;;;1.50;99.90;;;;;;4996872;28;20183;-86
2021/12/07 10:14:49;;;;;;;13.50;7.50;;;1.50;99.90;;;;;;5013386;28;20230;-86
2021/12/07 10:17:21;;;;;;;15.90;6.70;;;1.50;99.90;;;;;;5014904;28;20180;-86
2021/12/07 10:19:48;;;;;;;12.67;7.17;;;1.50;99.90;;;;;;5018119;28;20160;-86
2021/12/07 10:22:20;;;;;;;10.30;7.47;;;1.60;99.90;;;;;;4995368;28;20187;-87
2021/12/07 10:24:53;;;;;;;18.10;8.63;;;1.60;99.90;;;;;;4995239;28;20164;-84
2021/12/07 10:27:37;;;;;;;17.17;7.70;;;1.60;99.90;;;;;;4994855;28;20203;-87
2021/12/07 10:30:16;;;;;;;15.80;8.40;;;1.60;99.90;;;;;;5013066;28;20170;-86
2021/12/07 10:32:42;;;;;;;14.33;7.87;;;1.70;99.90;;;;;;5013724;28;20175;-85
2021/12/07 10:35:46;;;;;;;11.50;7.30;;;1.90;99.90;;;;;;5012467;28;20172;-86
2021/12/07 10:38:17;;;;;;;12.43;7.40;;;1.90;99.90;;;;;;4933435;29;20190;-85
2021/12/07 10:40:56;;;;;;;14.30;7.47;;;1.90;99.90;;;;;;4933024;29;20183;-86
2021/12/07 10:43:45;;;;;;;11.23;8.03;;;2.00;99.90;;;;;;4933708;29;20313;-85
2021/12/07 10:46:31;;;;;;;14.30;8.27;;;2.10;99.90;;;;;;4934977;29;20250;-86
2021/12/07 10:49:25;;;;;;;16.90;9.20;;;2.10;99.90;;;;;;4933145;29;20281;-85
2021/12/07 10:52:07;;;;;;;18.37;8.20;;;2.10;99.90;;;;;;4932657;29;20168;-89
2021/12/07 10:54:40;;;;;;;25.70;10.37;;;2.10;99.90;;;;;;4932748;29;20171;-89
2021/12/07 10:57:09;;;;;;;17.40;8.87;;;2.10;99.90;;;;;;4932713;29;20201;-89
2021/12/07 10:59:56;;;;;;;18.83;8.07;;;2.20;99.90;;;;;;4935874;29;20697;-89
2021/12/07 11:02:44;;;;;;;19.00;8.20;;;2.20;99.90;;;;;;4930099;29;20199;-89
2021/12/07 11:05:16;;;;;;;16.70;8.67;;;2.20;99.90;;;;;;4935449;29;20178;-86
2021/12/07 11:07:42;;;;;;;14.17;8.77;;;2.20;99.90;;;;;;4916423;29;20219;-86
2021/12/07 11:10:15;;;;;;;17.73;8.20;;;2.20;99.90;;;;;;4992825;28;20780;-86
2021/12/07 11:12:49;;;;;;;14.67;8.53;;;2.20;99.90;;;;;;5017318;28;20278;-86
2021/12/07 11:15:23;;;;;;;13.20;7.97;;;2.30;99.90;;;;;;5022143;28;20158;-84
2021/12/07 11:17:51;;;;;;;16.90;8.50;;;2.30;99.90;;;;;;5008699;28;20181;-84
2021/12/07 11:20:17;;;;;;;11.97;8.30;;;2.30;99.90;;;;;;5015750;28;20188;-87
2021/12/07 11:22:47;;;;;;;15.10;8.83;;;2.40;99.90;;;;;;5008428;28;20185;-85
2021/12/07 11:25:53;;;;;;;12.37;8.60;;;2.40;99.90;;;;;;5012822;28;20258;-85
2021/12/07 11:31:29;;;;;;;19.83;9.27;;;2.40;99.90;;;;;;5012724;28;20951;-85
2021/12/07 11:34:08;;;;;;;16.33;8.73;;;2.40;99.90;;;;;;4997138;28;20215;-86
2021/12/07 11:36:38;;;;;;;11.07;8.47;;;2.50;99.90;;;;;;4996110;28;20180;-86
2021/12/07 11:39:18;;;;;;;15.50;9.00;;;2.60;99.90;;;;;;4995400;28;20187;-86
2021/12/07 11:41:48;;;;;;;14.53;8.77;;;2.60;99.90;;;;;;5027474;28;20628;-84
2021/12/07 11:44:14;;;;;;;15.93;8.67;;;2.50;99.90;;;;;;5032027;28;20228;-86
2021/12/07 11:46:47;;;;;;;14.90;9.70;;;2.60;99.90;;;;;;5012674;28;20201;-86
2021/12/07 11:49:17;;;;;;;14.27;8.90;;;2.70;99.90;;;;;;5016269;28;20182;-86
2021/12/07 11:51:45;;;;;;;14.03;9.20;;;2.70;99.90;;;;;;5012552;28;20173;-86
2021/12/07 11:54:12;;;;;;;13.73;8.50;;;2.80;99.90;;;;;;5011480;28;20635;-87
2021/12/07 11:56:39;;;;;;;14.90;9.00;;;2.80;99.90;;;;;;4993904;28;20177;-86
2021/12/07 11:59:05;;;;;;;16.57;8.67;;;2.90;99.90;;;;;;4993867;28;20185;-86
2021/12/07 12:01:31;;;;;;;17.13;8.77;;;3.00;99.90;;;;;;5013200;28;20191;-86
2021/12/07 12:03:57;;;;;;;12.33;8.73;;;3.00;99.90;;;;;;5013379;28;20256;-86
2021/12/07 12:06:23;;;;;;;15.73;8.23;;;3.00;99.90;;;;;;4994710;28;20389;-86
2021/12/07 12:08:50;;;;;;;12.83;8.53;;;3.10;99.90;;;;;;5011641;28;20192;-86
2021/12/07 12:11:31;;;;;;;10.50;7.70;;;3.10;99.90;;;;;;5011612;28;20317;-85
2021/12/07 12:14:10;;;;;;;10.90;8.37;;;3.10;99.90;;;;;;4995048;28;20187;-86
2021/12/07 12:17:03;;;;;;;14.53;8.63;;;3.10;99.90;;;;;;5011678;28;20176;-86
2021/12/07 12:19:46;;;;;;;14.63;7.63;;;3.10;99.90;;;;;;5011370;28;20166;-86
2021/12/07 12:22:34;;;;;;;13.33;7.50;;;3.20;99.90;;;;;;5013875;28;20164;-86
2021/12/07 12:25:04;;;;;;;11.63;7.40;;;3.20;99.90;;;;;;5015265;28;20251;-87
2021/12/07 12:27:34;;;;;;;10.90;7.10;;;3.30;99.90;;;;;;4997407;28;20231;-86
2021/12/07 12:30:16;;;;;;;10.07;7.13;;;3.30;99.90;;;;;;5015148;28;20173;-88
2021/12/07 12:32:46;;;;;;;12.17;7.93;;;3.30;99.90;;;;;;4998124;28;20182;-85
2021/12/07 12:35:14;;;;;;;10.23;7.93;;;3.20;99.90;;;;;;4998053;28;20178;-87
2021/12/07 12:37:47;;;;;;;11.63;7.90;;;3.30;99.90;;;;;;5016888;28;20180;-87
2021/12/07 12:40:24;;;;;;;9.23;7.07;;;3.40;99.90;;;;;;5019118;28;20194;-85
2021/12/07 12:42:52;;;;;;;8.90;6.37;;;3.40;99.90;;;;;;5007436;28;20232;-86
2021/12/07 12:45:29;;;;;;;8.30;5.77;;;3.40;99.90;;;;;;5032046;28;20188;-86
2021/12/07 12:48:06;;;;;;;7.93;5.67;;;3.50;99.90;;;;;;4998449;28;20703;-86
2021/12/07 12:50:34;;;;;;;9.93;6.00;;;3.50;99.90;;;;;;4996683;28;20186;-86
2021/12/07 12:53:08;;;;;;;6.97;6.23;;;3.50;99.90;;;;;;5014360;28;20216;-86
2021/12/07 12:55:39;;;;;;;10.43;5.70;;;3.50;99.90;;;;;;5023349;28;20657;-86
2021/12/07 12:58:20;;;;;;;11.30;6.07;;;3.40;99.90;;;;;;5019140;28;20194;-86
2021/12/07 13:01:12;;;;;;;9.53;5.40;;;3.40;99.90;;;;;;5020088;28;20243;-88
2021/12/07 13:04:06;;;;;;;9.60;5.90;;;3.40;99.90;;;;;;5025265;28;20163;-88
2021/12/07 13:06:38;;;;;;;11.70;5.73;;;3.40;99.90;;;;;;4983514;28;20702;-85
2021/12/07 13:09:09;;;;;;;9.00;5.43;;;3.40;99.90;;;;;;5015001;28;20240;-86
2021/12/07 13:11:46;;;;;;;8.47;5.53;;;3.50;99.90;;;;;;4994193;28;20190;-86
2021/12/07 13:14:30;;;;;;;8.33;5.93;;;3.60;99.90;;;;;;4977207;28;20178;-85
2021/12/07 13:17:07;;;;;;;9.43;5.00;;;3.60;99.90;;;;;;4980153;28;20211;-88
2021/12/07 13:20:11;;;;;;;8.50;4.73;;;3.60;99.90;;;;;;4983064;28;20176;-85
2021/12/07 13:22:45;;;;;;;6.00;5.33;;;3.70;99.90;;;;;;4981254;28;20208;-85
2021/12/07 13:25:18;;;;;;;12.80;5.43;;;3.60;99.90;;;;;;4996643;28;20231;-87
2021/12/07 13:28:11;;;;;;;9.70;5.03;;;3.60;99.90;;;;;;4994754;28;20947;-86
2021/12/07 13:31:00;;;;;;;6.40;4.53;;;3.70;99.90;;;;;;4990944;28;20174;-86
2021/12/07 13:33:40;;;;;;;8.87;4.50;;;3.80;99.90;;;;;;5016901;28;20194;-86
2021/12/07 13:36:48;;;;;;;9.07;4.87;;;3.90;99.90;;;;;;4981385;28;20649;-87
2021/12/07 13:39:14;;;;;;;7.70;3.87;;;3.90;99.90;;;;;;4981172;28;20221;-86
2021/12/07 13:42:05;;;;;;;7.17;4.37;;;3.90;99.90;;;;;;4993837;28;20624;-87
2021/12/07 13:44:37;;;;;;;4.67;4.10;;;3.80;99.90;;;;;;4993849;28;20666;-88
2021/12/07 13:47:07;;;;;;;7.83;4.50;;;3.70;99.90;;;;;;4993935;28;20200;-87
2021/12/07 13:49:34;;;;;;;6.40;4.30;;;3.90;99.90;;;;;;4993919;28;20169;-88
2021/12/07 13:52:01;;;;;;;6.93;5.00;;;4.00;99.90;;;;;;4976110;28;20189;-86
2021/12/07 13:54:27;;;;;;;6.60;4.40;;;4.00;99.60;;;;;;4993902;28;20854;-86
2021/12/07 13:56:54;;;;;;;8.57;4.40;;;3.90;99.50;;;;;;4993381;28;20206;-87
2021/12/07 13:59:26;;;;;;;12.30;3.97;;;3.90;99.30;;;;;;4993329;28;20599;-86
2021/12/07 14:01:55;;;;;;;7.47;3.80;;;3.90;99.50;;;;;;4976035;28;20178;-85
2021/12/07 14:04:27;;;;;;;14.60;3.80;;;4.00;99.70;;;;;;4998266;28;20215;-85
2021/12/07 14:06:53;;;;;;;10.47;4.27;;;4.00;99.60;;;;;;5012870;28;20284;-87
2021/12/07 14:09:20;;;;;;;12.97;3.40;;;3.90;99.50;;;;;;5012402;28;20206;-85
2021/12/07 14:12:10;;;;;;;4.73;3.53;;;3.70;99.20;;;;;;5004405;28;20172;-86
2021/12/07 14:14:36;;;;;;;9.30;4.07;;;3.70;99.60;;;;;;5004905;28;20170;-87
2021/12/07 14:17:01;;;;;;;6.23;3.60;;;3.70;99.90;;;;;;4987654;28;20188;-86
2021/12/07 14:19:27;;;;;;;5.63;3.70;;;3.80;99.50;;;;;;4986750;28;20192;-87
2021/12/07 14:21:54;;;;;;;6.63;3.90;;;3.80;99.40;;;;;;4987034;28;20180;-86
2021/12/07 14:24:20;;;;;;;6.53;3.30;;;3.90;99.60;;;;;;5005273;28;20367;-86
2021/12/07 14:26:48;;;;;;;4.27;3.33;;;3.80;99.40;;;;;;5001556;28;20211;-86
2021/12/07 14:29:25;;;;;;;5.33;3.17;;;3.60;99.60;;;;;;4983740;28;20672;-86
2021/12/07 14:31:56;;;;;;;6.70;3.30;;;3.60;99.70;;;;;;5004936;28;20186;-86
2021/12/07 14:34:26;;;;;;;6.67;3.33;;;3.60;99.60;;;;;;4984863;28;20191;-86
2021/12/07 14:36:56;;;;;;;6.47;3.27;;;3.70;99.70;;;;;;5006560;28;20247;-86